Time;durP1;ratioP1;P1;durP2;ratioP2;P2;SDS_P1;SDS_P2;PMS_P1;PMS_P2;Temp;Humidity;BMP_temperature;BMP_pressure;BME280_temperature;BME280_humidity;BME280_pressure;Samples;Min_cycle;Max_cycle;Signal;HPM_P1;HPM_P2
2022/03/28 00:01:00;;;;;;;6.13;4.60;;;;;;;9.35;70.03;102175.56;4965272;28;20289;-58
2022/03/28 00:03:28;;;;;;;7.03;5.37;;;;;;;9.34;70.61;102173.78;4964864;28;20242;-58
2022/03/28 00:05:54;;;;;;;8.90;5.60;;;;;;;9.32;70.92;102170.22;4965120;28;20285;-57
2022/03/28 00:08:20;;;;;;;7.83;5.70;;;;;;;9.28;71.10;102171.88;4966360;28;20237;-58
2022/03/28 00:10:47;;;;;;;6.43;5.10;;;;;;;9.32;71.12;102160.63;4966441;28;20231;-58
2022/03/28 00:13:13;;;;;;;7.30;5.13;;;;;;;9.27;71.27;102161.38;4966376;28;20473;-58
2022/03/28 00:15:40;;;;;;;7.83;5.47;;;;;;;9.26;71.79;102164.81;4964651;28;20230;-58
2022/03/28 00:18:08;;;;;;;5.63;5.10;;;;;;;9.20;71.68;102159.44;4963581;28;20247;-59
2022/03/28 00:20:36;;;;;;;10.93;5.57;;;;;;;9.23;71.88;102164.72;4966376;28;20245;-58
2022/03/28 00:23:03;;;;;;;6.67;5.57;;;;;;;9.26;72.33;102159.56;4965787;28;20237;-56
2022/03/28 00:25:30;;;;;;;11.03;5.30;;;;;;;9.22;72.50;102157.72;4966057;28;20349;-57
2022/03/28 00:27:56;;;;;;;6.87;5.20;;;;;;;9.15;72.81;102158.41;4966273;28;20227;-56
2022/03/28 00:30:23;;;;;;;6.13;5.30;;;;;;;9.12;73.52;102166.16;4966027;28;20261;-57
2022/03/28 00:32:49;;;;;;;6.13;5.50;;;;;;;9.06;73.66;102161.66;4966000;28;20250;-57
2022/03/28 00:35:17;;;;;;;6.67;5.67;;;;;;;9.02;74.12;102165.00;4964012;28;20334;-57
2022/03/28 00:37:45;;;;;;;7.80;5.63;;;;;;;9.05;74.43;102155.50;4964521;28;20246;-57
2022/03/28 00:40:12;;;;;;;8.67;5.60;;;;;;;9.11;75.12;102143.44;4965486;28;20253;-57
2022/03/28 00:42:38;;;;;;;8.43;5.87;;;;;;;9.11;75.12;102140.81;4965575;28;20235;-57
2022/03/28 00:45:06;;;;;;;7.80;5.93;;;;;;;9.09;74.98;102143.41;4965116;28;20238;-57
2022/03/28 00:47:35;;;;;;;7.97;5.67;;;;;;;9.17;75.44;102138.38;4965015;28;20233;-56
2022/03/28 00:50:01;;;;;;;7.10;5.10;;;;;;;9.12;75.80;102129.50;4966207;28;20230;-57
2022/03/28 00:52:28;;;;;;;7.33;6.43;;;;;;;9.21;75.97;102125.38;4964077;28;20246;-56
2022/03/28 00:54:56;;;;;;;8.30;6.10;;;;;;;9.12;76.08;102125.13;4966099;28;20230;-57
2022/03/28 00:57:22;;;;;;;6.90;5.23;;;;;;;9.08;76.87;102121.53;4966199;28;20234;-57
2022/03/28 00:59:49;;;;;;;7.10;5.67;;;;;;;9.11;76.76;102119.88;4965200;28;20238;-57
2022/03/28 01:02:15;;;;;;;9.50;6.40;;;;;;;9.07;77.38;102108.41;4965063;28;20678;-56
2022/03/28 01:04:42;;;;;;;7.73;5.77;;;;;;;9.03;77.78;102112.69;4964294;28;20316;-56
2022/03/28 01:07:08;;;;;;;9.10;5.63;;;;;;;9.01;77.58;102111.75;4963504;28;20230;-56
2022/03/28 01:09:35;;;;;;;6.47;5.07;;;;;;;8.98;77.96;102106.41;4965207;28;20230;-57
2022/03/28 01:12:04;;;;;;;8.07;6.30;;;;;;;8.98;77.94;102101.19;4965177;28;20235;-56
2022/03/28 01:14:31;;;;;;;10.83;6.07;;;;;;;8.98;77.92;102106.41;4965199;28;20230;-56
2022/03/28 01:19:41;;;;;;;9.17;6.20;;;;;;;9.00;78.00;102099.50;4965864;28;20622;-57
2022/03/28 01:22:09;;;;;;;6.97;5.23;;;;;;;8.99;78.34;102092.50;4964600;28;20230;-56
2022/03/28 01:24:36;;;;;;;9.57;6.33;;;;;;;8.90;78.80;102087.00;4962501;28;20270;-57
2022/03/28 01:27:04;;;;;;;8.87;6.60;;;;;;;8.97;78.93;102093.28;4958067;28;20242;-57
2022/03/28 01:29:30;;;;;;;10.33;5.93;;;;;;;8.76;79.15;102088.34;4965757;28;20235;-57
2022/03/28 01:31:57;;;;;;;9.57;6.20;;;;;;;8.77;79.40;102084.88;4965492;28;20234;-57
2022/03/28 01:34:23;;;;;;;10.43;6.90;;;;;;;8.86;79.63;102079.91;4965344;28;20301;-57
2022/03/28 01:36:49;;;;;;;10.07;6.00;;;;;;;8.87;79.55;102084.28;4964796;28;21026;-58
2022/03/28 01:39:18;;;;;;;12.13;6.83;;;;;;;8.80;79.46;102077.09;4968305;28;20297;-57
2022/03/28 01:41:45;;;;;;;8.07;5.90;;;;;;;8.77;79.58;102084.88;4967124;28;22274;-57
2022/03/28 01:44:12;;;;;;;7.80;6.23;;;;;;;8.79;80.03;102089.31;4969094;28;20238;-58
2022/03/28 01:46:44;;;;;;;7.50;6.00;;;;;;;8.71;80.10;102092.56;4968626;28;20788;-57
2022/03/28 01:49:10;;;;;;;10.43;5.93;;;;;;;8.71;80.24;102077.75;4969428;28;20230;-57
2022/03/28 01:51:38;;;;;;;8.00;5.83;;;;;;;8.70;80.04;102080.31;4969024;28;20241;-57
2022/03/28 01:54:05;;;;;;;9.23;5.97;;;;;;;8.66;79.94;102074.09;4968128;28;20266;-57
2022/03/28 01:56:34;;;;;;;9.23;6.20;;;;;;;8.64;80.46;102085.38;4967021;28;20234;-57
2022/03/28 01:59:00;;;;;;;9.23;5.47;;;;;;;8.66;80.18;102074.09;4968005;28;20317;-57
2022/03/28 02:01:27;;;;;;;9.83;5.57;;;;;;;8.63;80.08;102083.59;4968147;28;20250;-57
2022/03/28 02:03:53;;;;;;;7.10;6.00;;;;;;;8.54;79.74;102073.75;4968807;28;20258;-57
2022/03/28 02:06:19;;;;;;;9.67;6.23;;;;;;;8.51;80.23;102066.69;4968045;28;20709;-57
2022/03/28 02:08:46;;;;;;;8.90;6.13;;;;;;;8.51;80.21;102056.22;4967499;28;20780;-57
2022/03/28 02:11:12;;;;;;;6.13;5.37;;;;;;;8.43;80.59;102056.88;4968990;28;20231;-58
2022/03/28 02:13:40;;;;;;;9.10;5.97;;;;;;;8.41;80.78;102054.19;4967105;28;20729;-57
2022/03/28 02:16:07;;;;;;;10.27;6.70;;;;;;;8.45;80.69;102061.28;4967850;28;20242;-58
2022/03/28 02:18:34;;;;;;;10.83;7.90;;;;;;;8.44;80.52;102054.28;4968770;28;20720;-58
2022/03/28 02:21:00;;;;;;;10.10;7.33;;;;;;;8.51;79.85;102045.75;4968649;28;20402;-57
2022/03/28 02:23:27;;;;;;;11.30;7.87;;;;;;;8.43;80.46;102047.28;4968120;28;20266;-58
2022/03/28 02:25:53;;;;;;;10.13;6.10;;;;;;;8.35;80.30;102043.50;4968590;28;20246;-57
2022/03/28 02:28:20;;;;;;;10.30;6.93;;;;;;;8.31;80.68;102041.63;4967165;28;20234;-57
2022/03/28 02:30:48;;;;;;;7.83;5.80;;;;;;;8.31;81.09;102042.53;4968546;28;20696;-57
2022/03/28 02:33:14;;;;;;;10.33;6.33;;;;;;;8.22;81.26;102037.03;4968710;28;20724;-57
2022/03/28 02:35:41;;;;;;;10.10;6.83;;;;;;;8.21;81.38;102036.97;4967546;28;20242;-57
2022/03/28 02:38:08;;;;;;;9.40;6.07;;;;;;;8.19;81.40;102038.69;4967859;28;20258;-57
2022/03/28 02:40:35;;;;;;;8.63;5.73;;;;;;;8.11;82.09;102034.09;4968718;28;20242;-57
2022/03/28 02:43:02;;;;;;;9.57;6.30;;;;;;;8.09;82.11;102040.13;4967996;28;20739;-58
2022/03/28 02:45:37;;;;;;;9.90;6.23;;;;;;;8.06;82.08;102035.69;4966262;28;20242;-57
2022/03/28 02:48:05;;;;;;;12.97;6.07;;;;;;;8.07;82.19;102029.63;4960954;28;20300;-56
2022/03/28 02:50:33;;;;;;;11.17;5.37;;;;;;;8.01;82.24;102020.72;4965973;28;20229;-56
2022/03/28 02:52:59;;;;;;;8.17;5.67;;;;;;;7.98;82.58;102025.84;4956072;28;20292;-57
2022/03/28 02:55:26;;;;;;;6.07;5.33;;;;;;;8.07;82.55;102023.47;4967288;28;20242;-56
2022/03/28 02:57:52;;;;;;;10.03;6.00;;;;;;;8.01;82.88;102018.97;4967777;28;20235;-56
2022/03/28 03:00:19;;;;;;;9.40;5.67;;;;;;;8.01;82.72;102015.47;4967635;28;20242;-57
2022/03/28 03:02:45;;;;;;;10.63;5.37;;;;;;;7.91;83.10;102016.91;4965612;28;20246;-59
2022/03/28 03:05:13;;;;;;;8.53;5.60;;;;;;;7.93;83.29;102017.84;4967494;28;20326;-59
2022/03/28 03:07:40;;;;;;;7.60;5.93;;;;;;;7.96;83.12;102010.09;4967262;28;20238;-58
2022/03/28 03:10:07;;;;;;;7.27;5.10;;;;;;;7.92;83.39;102010.84;4967499;28;20313;-58
2022/03/28 03:12:34;;;;;;;11.27;5.03;;;;;;;7.87;83.21;102010.72;4969647;28;20708;-59
2022/03/28 03:15:00;;;;;;;8.93;5.33;;;;;;;7.87;83.61;102001.97;4967240;28;20662;-58
2022/03/28 03:17:26;;;;;;;13.97;6.20;;;;;;;7.91;83.30;102003.84;4965636;28;20246;-58
2022/03/28 03:19:53;;;;;;;11.13;6.27;;;;;;;7.85;83.50;101994.06;4967458;28;20230;-58
2022/03/28 03:22:21;;;;;;;8.47;6.07;;;;;;;7.78;82.83;101996.47;4967666;28;20733;-58
2022/03/28 03:24:47;;;;;;;9.27;5.87;;;;;;;7.81;83.67;101997.44;4967361;28;20328;-57
2022/03/28 03:27:14;;;;;;;9.27;5.37;;;;;;;7.78;83.89;101989.50;4967405;28;20227;-58
2022/03/28 03:29:40;;;;;;;11.43;5.73;;;;;;;7.69;84.03;101991.84;4967001;28;20266;-58
2022/03/28 03:32:08;;;;;;;11.77;5.03;;;;;;;7.68;84.06;101983.94;4965895;28;20239;-58
2022/03/28 03:34:35;;;;;;;9.53;5.87;;;;;;;7.63;84.45;101986.41;4963402;28;20235;-58
2022/03/28 03:37:01;;;;;;;6.97;4.90;;;;;;;7.59;84.76;101989.78;4967426;28;20230;-57
2022/03/28 03:39:29;;;;;;;7.73;5.33;;;;;;;7.54;84.96;101987.00;4966894;28;20247;-58
2022/03/28 03:41:56;;;;;;;10.57;5.03;;;;;;;7.55;84.71;101983.56;4967805;28;20234;-57
2022/03/28 03:44:23;;;;;;;10.00;5.50;;;;;;;7.59;85.20;101985.44;4967106;28;20677;-57
2022/03/28 03:46:49;;;;;;;9.47;5.60;;;;;;;7.64;85.43;101978.63;4967036;28;20234;-57
2022/03/28 03:49:16;;;;;;;8.83;5.67;;;;;;;7.71;85.06;101981.44;4966860;28;20611;-58
2022/03/28 03:51:43;;;;;;;9.83;5.27;;;;;;;7.66;85.19;101978.69;4965323;28;20326;-57
2022/03/28 03:54:09;;;;;;;9.70;5.07;;;;;;;7.70;85.09;101979.66;4977400;22;20516;-58
2022/03/28 03:56:38;;;;;;;12.00;5.97;;;;;;;7.61;85.06;101983.75;4964538;28;20255;-58
2022/03/28 03:59:04;;;;;;;9.83;5.07;;;;;;;7.61;85.97;101975.91;4965761;28;20729;-58
2022/03/28 04:01:31;;;;;;;9.13;6.80;;;;;;;7.56;86.22;101974.00;4965804;28;20234;-57
2022/03/28 04:03:57;;;;;;;9.57;5.50;;;;;;;7.55;86.58;101973.13;4965726;28;20301;-57
2022/03/28 04:06:24;;;;;;;5.80;5.17;;;;;;;7.50;86.91;101969.47;4965701;28;20764;-57
2022/03/28 04:08:50;;;;;;;9.20;5.70;;;;;;;7.51;86.92;101962.50;4967253;28;20281;-58
2022/03/28 04:11:17;;;;;;;9.07;5.90;;;;;;;7.46;87.06;101967.59;4965846;28;20242;-57
2022/03/28 04:13:44;;;;;;;8.57;5.47;;;;;;;7.32;87.63;101964.53;4966811;28;20277;-57
2022/03/28 04:16:11;;;;;;;10.40;5.80;;;;;;;7.27;88.01;101965.25;4965643;28;20234;-57
2022/03/28 04:18:37;;;;;;;11.07;6.60;;;;;;;7.25;88.68;101964.31;4966139;28;20237;-57
2022/03/28 04:21:03;;;;;;;7.53;6.33;;;;;;;7.09;89.13;101961.19;4966710;28;20285;-57
2022/03/28 04:23:30;;;;;;;12.83;6.33;;;;;;;7.08;89.49;101959.41;4964898;28;20247;-58
2022/03/28 04:25:56;;;;;;;15.77;6.60;;;;;;;7.03;89.89;101955.78;4966206;28;20258;-56
2022/03/28 04:28:23;;;;;;;11.23;6.90;;;;;;;7.01;90.38;101946.09;4966683;28;20265;-57
2022/03/28 04:30:51;;;;;;;9.40;7.70;;;;;;;6.99;90.47;101950.41;4966857;28;20235;-57
2022/03/28 04:33:19;;;;;;;9.33;6.37;;;;;;;6.90;91.21;101950.97;4965995;28;20244;-57
2022/03/28 04:35:45;;;;;;;9.30;6.43;;;;;;;6.90;91.22;101948.34;4965172;28;20242;-58
2022/03/28 04:38:11;;;;;;;10.10;6.43;;;;;;;6.86;91.43;101954.31;4964965;28;20716;-59
2022/03/28 04:40:38;;;;;;;10.23;6.83;;;;;;;6.95;91.12;101954.63;4965926;28;20243;-58
2022/03/28 04:43:05;;;;;;;7.93;6.30;;;;;;;6.93;91.23;101964.13;4966170;28;20238;-58
2022/03/28 04:45:33;;;;;;;8.77;6.90;;;;;;;6.87;91.23;101951.75;4965733;28;20238;-58
2022/03/28 04:48:01;;;;;;;10.30;6.23;;;;;;;6.70;91.93;101955.50;4965689;28;20233;-58
2022/03/28 04:50:28;;;;;;;8.43;6.80;;;;;;;6.71;92.71;101957.31;4965764;28;20371;-58
2022/03/28 04:52:54;;;;;;;11.30;7.57;;;;;;;6.56;92.68;101957.63;4966713;28;20247;-58
2022/03/28 04:55:21;;;;;;;14.20;8.13;;;;;;;6.51;93.27;101948.78;4963800;28;20281;-57
2022/03/28 04:57:47;;;;;;;9.27;7.43;;;;;;;6.54;94.21;101946.28;4965526;28;20234;-57
2022/03/28 05:00:14;;;;;;;9.07;7.60;;;;;;;6.56;94.24;101947.19;4965787;28;20235;-59
2022/03/28 05:02:43;;;;;;;8.97;7.03;;;;;;;6.53;94.21;101952.34;4965511;28;20235;-55
2022/03/28 05:05:11;;;;;;;15.57;8.47;;;;;;;6.48;93.51;101953.88;4965445;28;20249;-56
2022/03/28 05:07:38;;;;;;;12.40;8.23;;;;;;;6.47;94.99;101962.53;4965926;28;20227;-56
2022/03/28 05:10:06;;;;;;;10.93;6.60;;;;;;;6.37;95.22;101955.22;4965458;28;20293;-57
2022/03/28 05:12:33;;;;;;;9.27;7.20;;;;;;;6.35;95.98;101963.00;4963003;28;20587;-57
2022/03/28 05:14:59;;;;;;;9.20;6.60;;;;;;;6.36;96.34;101966.50;4963401;28;20270;-56
2022/03/28 05:17:27;;;;;;;14.83;7.03;;;;;;;6.45;96.05;101958.97;4965736;28;20250;-56
2022/03/28 05:19:54;;;;;;;11.37;7.43;;;;;;;6.29;96.02;101959.28;4965814;28;20230;-57
2022/03/28 05:22:22;;;;;;;13.23;7.77;;;;;;;6.24;97.20;101963.44;4964948;28;20231;-56
2022/03/28 05:24:51;;;;;;;9.93;7.40;;;;;;;6.26;97.45;101951.34;4964932;28;20238;-56
2022/03/28 05:27:17;;;;;;;12.63;8.17;;;;;;;6.31;97.11;101952.38;4964974;28;20262;-57
2022/03/28 05:29:44;;;;;;;11.33;8.07;;;;;;;6.36;97.41;101951.72;4963482;28;20262;-57
2022/03/28 05:32:11;;;;;;;8.60;7.67;;;;;;;6.37;97.56;101952.63;4965208;28;20234;-58
2022/03/28 05:34:38;;;;;;;9.83;7.40;;;;;;;6.36;97.56;101945.63;4964591;28;20238;-58
2022/03/28 05:37:07;;;;;;;12.30;8.20;;;;;;;6.39;97.46;101941.41;4965443;28;20301;-57
2022/03/28 05:39:36;;;;;;;13.23;9.03;;;;;;;6.36;97.81;101941.28;4964245;28;20243;-57
2022/03/28 05:42:03;;;;;;;12.00;7.70;;;;;;;6.34;98.25;101944.69;4964735;28;20293;-61
2022/03/28 05:44:29;;;;;;;9.40;7.40;;;;;;;6.24;98.21;101942.56;4963322;28;20246;-57
2022/03/28 05:46:55;;;;;;;11.77;7.57;;;;;;;6.21;98.63;101933.81;4963024;28;20262;-57
2022/03/28 05:49:22;;;;;;;12.97;8.00;;;;;;;6.30;99.06;101934.97;4964380;28;20705;-57
2022/03/28 05:51:49;;;;;;;12.83;8.37;;;;;;;6.42;98.59;101938.00;4966274;28;20230;-56
2022/03/28 05:54:16;;;;;;;14.67;8.83;;;;;;;6.28;98.71;101939.22;4964888;28;21647;-57
2022/03/28 05:56:43;;;;;;;11.00;7.87;;;;;;;6.28;98.46;101928.81;4964354;28;20238;-57
2022/03/28 05:59:10;;;;;;;12.40;7.27;;;;;;;6.26;99.41;101925.28;4964269;28;20254;-57
2022/03/28 06:01:37;;;;;;;18.50;8.97;;;;;;;6.33;98.94;101927.25;4962486;28;20234;-57
2022/03/28 06:04:05;;;;;;;11.77;8.53;;;;;;;6.32;98.80;101931.59;4963477;28;20266;-58
2022/03/28 06:06:31;;;;;;;11.63;9.33;;;;;;;6.35;99.48;101925.56;4963260;28;20234;-56
2022/03/28 06:08:58;;;;;;;13.00;8.63;;;;;;;6.49;99.00;101919.13;4965949;28;20304;-58
2022/03/28 06:11:24;;;;;;;12.67;8.27;;;;;;;6.51;99.20;101925.28;4965415;28;20771;-57
2022/03/28 06:13:53;;;;;;;13.63;8.63;;;;;;;6.48;98.32;101922.56;4968625;28;20701;-57
2022/03/28 06:16:19;;;;;;;14.97;8.57;;;;;;;6.59;99.19;101920.34;4964119;28;20266;-57
2022/03/28 06:18:45;;;;;;;12.47;8.83;;;;;;;6.75;98.08;101911.31;4962787;28;20659;-57
2022/03/28 06:21:12;;;;;;;11.53;9.33;;;;;;;6.77;98.21;101909.63;4964785;28;20258;-58
2022/03/28 06:23:38;;;;;;;17.43;9.13;;;;;;;6.68;97.57;101910.22;4965487;28;20262;-58
2022/03/28 06:26:10;;;;;;;9.53;7.67;;;;;;;6.81;98.10;101916.72;4977071;28;20242;-57
2022/03/28 06:28:36;;;;;;;13.50;9.47;;;;;;;6.92;97.66;101905.81;4969261;28;20760;-58
2022/03/28 06:31:04;;;;;;;11.27;8.13;;;;;;;6.98;97.71;101909.44;4969960;28;20648;-59
2022/03/28 06:33:30;;;;;;;15.57;7.70;;;;;;;7.11;97.00;101902.06;4968166;28;20246;-57
2022/03/28 06:35:57;;;;;;;12.13;7.83;;;;;;;7.18;96.49;101898.78;4966848;28;20250;-59
2022/03/28 06:38:23;;;;;;;15.40;9.23;;;;;;;7.26;96.38;101895.53;4969126;28;20274;-57
2022/03/28 06:40:49;;;;;;;9.97;8.30;;;;;;;7.43;95.42;101896.94;4970277;28;20246;-58
2022/03/28 06:43:16;;;;;;;12.93;8.80;;;;;;;7.33;95.21;101898.38;4976553;28;20250;-57
2022/03/28 06:45:42;;;;;;;14.37;9.50;;;;;;;7.47;94.89;101887.47;4967897;28;20246;-57
2022/03/28 06:48:11;;;;;;;15.83;9.23;;;;;;;7.49;94.65;101876.25;4968995;28;20257;-58
2022/03/28 06:50:38;;;;;;;14.47;9.53;;;;;;;7.47;94.81;101880.53;4968518;28;20237;-57
2022/03/28 06:53:05;;;;;;;11.17;8.47;;;;;;;7.43;95.07;101877.78;4963082;28;20238;-57
2022/03/28 06:55:31;;;;;;;13.53;9.33;;;;;;;7.48;95.62;101861.41;4968409;28;20290;-57
2022/03/28 06:57:57;;;;;;;15.57;10.63;;;;;;;7.56;95.04;101864.25;4974029;28;20231;-58
2022/03/28 07:00:25;;;;;;;14.43;9.80;;;;;;;7.58;95.56;101854.69;4968400;28;20305;-55
2022/03/28 07:02:51;;;;;;;16.43;9.07;;;;;;;7.62;95.41;101856.59;4968546;28;20238;-56
2022/03/28 07:05:19;;;;;;;15.60;9.97;;;;;;;7.67;94.42;101852.38;4968764;28;20239;-55
2022/03/28 07:07:47;;;;;;;17.37;11.33;;;;;;;7.94;93.64;101852.28;4967467;28;20242;-55
2022/03/28 07:10:14;;;;;;;16.33;10.03;;;;;;;7.94;93.49;101847.03;4968092;28;20293;-55
2022/03/28 07:12:41;;;;;;;16.43;9.80;;;;;;;7.97;93.25;101852.34;4966627;28;20242;-58
2022/03/28 07:15:10;;;;;;;15.50;9.53;;;;;;;7.94;93.11;101847.03;4966076;28;20242;-56
2022/03/28 07:17:48;;;;;;;15.83;9.07;;;;;;;7.99;92.21;101853.28;4965533;28;20661;-55
2022/03/28 07:20:14;;;;;;;13.27;8.60;;;;;;;8.12;91.57;101842.31;4968376;28;20262;-57
2022/03/28 07:22:42;;;;;;;13.37;9.33;;;;;;;7.92;91.82;101838.25;4967839;28;20239;-57
2022/03/28 07:25:10;;;;;;;13.57;9.30;;;;;;;8.01;92.01;101843.75;4966405;28;20265;-58
2022/03/28 07:27:37;;;;;;;14.33;8.40;;;;;;;8.02;91.09;101835.06;4968250;28;20289;-57
2022/03/28 07:30:05;;;;;;;13.57;7.67;;;;;;;8.19;90.47;101832.88;4968187;28;20230;-56
2022/03/28 07:32:31;;;;;;;9.37;7.10;;;;;;;8.34;90.14;101837.63;4969164;28;20238;-57
2022/03/28 07:34:57;;;;;;;15.77;9.07;;;;;;;8.30;89.39;101835.78;4967025;28;20234;-56
2022/03/28 07:37:24;;;;;;;14.63;9.03;;;;;;;8.51;89.02;101836.38;4969475;28;20597;-58
2022/03/28 07:39:52;;;;;;;14.60;8.10;;;;;;;8.51;88.70;101841.59;4968434;28;20250;-57
2022/03/28 07:42:18;;;;;;;10.80;7.00;;;;;;;8.65;86.79;101838.44;4968075;28;20226;-56
2022/03/28 07:44:44;;;;;;;12.43;7.80;;;;;;;8.69;87.02;101829.81;4969657;28;20508;-57
2022/03/28 07:47:11;;;;;;;11.33;8.20;;;;;;;8.75;86.74;101835.22;4968004;28;20234;-57
2022/03/28 07:49:38;;;;;;;12.40;7.87;;;;;;;8.88;85.93;101837.28;4967838;28;20296;-56
2022/03/28 07:52:08;;;;;;;14.27;8.10;;;;;;;9.05;85.78;101830.66;4967056;28;20321;-58
2022/03/28 07:54:36;;;;;;;12.43;9.00;;;;;;;9.23;85.14;101818.81;4970350;28;20238;-57
2022/03/28 07:57:05;;;;;;;14.73;8.63;;;;;;;9.51;83.39;101826.47;4972322;28;20583;-58
2022/03/28 07:59:35;;;;;;;12.23;9.60;;;;;;;9.72;82.32;101823.41;4967456;28;20230;-57
2022/03/28 08:02:01;;;;;;;12.93;8.53;;;;;;;10.00;81.38;101819.56;4968958;28;20309;-57
2022/03/28 08:04:28;;;;;;;11.73;8.70;;;;;;;9.84;81.88;101820.13;4966481;28;20242;-56
2022/03/28 08:06:54;;;;;;;12.60;9.03;;;;;;;10.01;80.88;101818.69;4969262;28;20251;-55
2022/03/28 08:09:21;;;;;;;15.07;8.83;;;;;;;10.18;80.72;101812.84;4968257;28;20771;-56
2022/03/28 08:11:47;;;;;;;11.67;9.10;;;;;;;10.31;80.21;101816.63;4959393;28;20235;-58
2022/03/28 08:14:15;;;;;;;19.80;8.23;;;;;;;10.35;79.29;101814.06;4969952;28;20238;-57
2022/03/28 08:16:41;;;;;;;15.90;9.00;;;;;;;10.54;78.48;101803.91;4969460;28;20238;-57
2022/03/28 08:19:08;;;;;;;14.93;7.43;;;;;;;10.68;76.98;101802.38;4968839;28;20245;-55
2022/03/28 08:21:34;;;;;;;18.20;9.00;;;;;;;10.54;76.72;101799.53;4970800;28;20286;-56
2022/03/28 08:24:00;;;;;;;13.57;7.53;;;;;;;10.67;76.71;101792.72;4971746;28;20239;-55
2022/03/28 08:26:27;;;;;;;13.53;7.70;;;;;;;10.96;75.01;101782.66;4972508;28;20293;-56
2022/03/28 08:28:54;;;;;;;12.77;8.30;;;;;;;11.18;74.57;101789.09;4972757;28;20266;-55
2022/03/28 08:31:21;;;;;;;11.53;8.47;;;;;;;11.17;73.83;101792.59;4968938;28;20238;-56
2022/03/28 08:33:48;;;;;;;13.07;7.77;;;;;;;11.37;73.77;101790.19;4970416;28;20242;-56
2022/03/28 08:36:14;;;;;;;9.03;7.17;;;;;;;11.57;72.91;101798.34;4967017;28;20258;-55
2022/03/28 08:38:40;;;;;;;11.33;7.30;;;;;;;11.68;71.49;101778.31;4966263;28;20243;-55
2022/03/28 08:41:12;;;;;;;14.60;8.43;;;;;;;11.82;70.81;101779.34;4966695;28;20233;-56
2022/03/28 08:43:39;;;;;;;10.83;8.20;;;;;;;11.86;70.82;101782.91;4968612;28;20238;-55
2022/03/28 08:46:08;;;;;;;11.10;7.57;;;;;;;12.00;70.29;101772.53;4963272;28;21137;-62
2022/03/28 08:48:38;;;;;;;10.98;7.82;;;;;;;12.14;68.87;101770.91;4963933;28;20318;-58
2022/03/28 08:51:05;;;;;;;10.73;7.43;;;;;;;12.20;69.00;101778.88;4960745;28;20246;-58
2022/03/28 08:53:31;;;;;;;14.45;7.40;;;;;;;12.15;68.84;101770.06;4963910;28;20242;-59
2022/03/28 08:55:58;;;;;;;10.43;7.30;;;;;;;12.06;68.50;101772.59;4962118;28;20309;-59
2022/03/28 08:58:24;;;;;;;9.80;7.50;;;;;;;12.27;67.97;101771.91;4962726;28;20233;-63
2022/03/28 09:00:51;;;;;;;11.25;7.68;;;;;;;12.15;68.73;101762.16;4967005;28;20485;-56
2022/03/28 09:03:17;;;;;;;11.63;7.78;;;;;;;12.11;68.56;101765.59;4963376;28;20239;-56
2022/03/28 09:05:49;;;;;;;16.17;9.25;;;;;;;11.91;69.26;101755.78;4964946;28;20262;-56
2022/03/28 09:08:16;;;;;;;8.55;7.28;;;;;;;12.22;68.68;101750.81;4965117;28;20230;-59
2022/03/28 09:10:46;;;;;;;13.82;8.93;;;;;;;12.47;67.76;101740.47;4964241;28;20355;-57
2022/03/28 09:13:16;;;;;;;14.38;8.38;;;;;;;12.56;67.43;101743.16;4962565;28;20238;-56
2022/03/28 09:15:45;;;;;;;14.50;8.43;;;;;;;12.76;66.17;101746.81;4964366;28;20381;-55
2022/03/28 09:18:23;;;;;;;10.68;8.98;;;;;;;12.70;65.08;101741.50;4965902;28;20231;-57
2022/03/28 09:20:52;;;;;;;14.57;7.95;;;;;;;13.00;64.71;101742.56;4954981;28;20240;-56
2022/03/28 09:23:38;;;;;;;11.15;8.52;;;;;;;13.13;63.64;101737.34;4964197;28;20301;-57
2022/03/28 09:26:11;;;;;;;12.40;8.07;;;;;;;13.25;63.52;101731.28;4963190;28;20341;-56
2022/03/28 09:28:46;;;;;;;9.35;7.25;;;;;;;13.08;62.77;101733.81;4961448;28;20417;-60
2022/03/28 09:31:21;;;;;;;11.55;8.63;;;;;;;13.41;61.92;101720.78;4963850;28;20722;-56
2022/03/28 09:33:58;;;;;;;12.15;8.77;;;;;;;13.41;61.80;101728.69;4960769;28;20902;-59
2022/03/28 09:36:40;;;;;;;10.02;7.63;;;;;;;13.58;61.23;101719.06;4962820;28;20222;-56
2022/03/28 09:39:07;;;;;;;12.10;8.27;;;;;;;13.76;60.22;101716.50;4961917;28;20539;-58
2022/03/28 09:41:34;;;;;;;9.98;8.35;;;;;;;13.83;60.25;101704.19;4964498;28;20241;-57
2022/03/28 09:44:00;;;;;;;17.50;8.98;;;;;;;13.76;60.08;101718.22;4963727;28;20234;-61
2022/03/28 09:46:27;;;;;;;13.48;8.88;;;;;;;13.82;60.22;101711.19;4964469;28;20297;-58
2022/03/28 09:48:55;;;;;;;11.65;7.75;;;;;;;13.76;60.24;101703.28;4963789;28;20261;-58
2022/03/28 09:51:22;;;;;;;9.25;7.05;;;;;;;13.83;58.94;101697.13;4964249;28;20440;-59
2022/03/28 09:53:50;;;;;;;8.45;7.45;;;;;;;13.92;59.09;101698.00;4965250;28;20261;-58
2022/03/28 09:56:17;;;;;;;10.35;7.95;;;;;;;14.05;57.94;101694.50;4964219;28;20905;-58
2022/03/28 09:58:46;;;;;;;12.07;7.65;;;;;;;14.00;58.42;101696.25;4964709;28;20278;-62
2022/03/28 10:01:17;;;;;;;11.02;7.90;;;;;;;13.72;58.72;101690.06;4968921;28;20847;-59
2022/03/28 10:03:46;;;;;;;9.73;6.82;;;;;;;13.78;59.50;101685.69;4964541;28;20243;-58
2022/03/28 10:06:13;;;;;;;8.15;7.28;;;;;;;13.93;59.00;101682.16;4968699;28;20249;-58
2022/03/28 10:08:40;;;;;;;9.48;6.65;;;;;;;13.87;57.62;101689.22;4969214;28;20238;-55
2022/03/28 10:11:08;;;;;;;10.63;7.97;;;;;;;13.90;57.68;101678.63;4968070;28;20234;-56
2022/03/28 10:13:35;;;;;;;10.57;7.45;;;;;;;13.88;57.50;101681.28;4967728;28;20262;-59
2022/03/28 10:16:05;;;;;;;13.85;7.18;;;;;;;13.87;57.24;101686.59;4972118;28;20718;-58
2022/03/28 10:18:33;;;;;;;9.52;6.53;;;;;;;13.97;57.63;101680.41;4968509;28;20227;-57
2022/03/28 10:21:01;;;;;;;10.38;6.97;;;;;;;13.93;56.08;101679.53;4964955;28;20962;-56
2022/03/28 10:23:33;;;;;;;8.07;6.25;;;;;;;14.05;56.34;101683.94;4965226;28;20701;-57
2022/03/28 10:26:00;;;;;;;9.60;6.32;;;;;;;14.07;56.10;101679.53;4965642;28;20233;-61
2022/03/28 10:28:28;;;;;;;9.50;7.75;;;;;;;14.11;55.69;101668.09;4966760;28;20238;-56
2022/03/28 10:31:15;;;;;;;10.05;6.80;;;;;;;14.18;55.88;101667.22;4968633;28;20286;-56
2022/03/28 10:33:50;;;;;;;11.10;7.38;;;;;;;14.10;55.76;101666.31;4969239;28;20301;-56
2022/03/28 10:36:28;;;;;;;6.25;5.50;;;;;;;14.18;55.22;101661.03;4970292;28;20911;-56
2022/03/28 10:38:57;;;;;;;13.57;7.63;;;;;;;14.30;55.28;101667.19;4971056;28;20234;-59
2022/03/28 10:41:26;;;;;;;8.02;6.82;;;;;;;14.40;55.43;101654.84;4971564;28;20222;-61
2022/03/28 10:44:03;;;;;;;12.43;6.90;;;;;;;14.44;54.58;101655.72;4970318;28;20234;-55
2022/03/28 10:46:35;;;;;;;15.55;6.68;;;;;;;14.52;54.53;101654.84;4972621;28;20230;-60
2022/03/28 10:49:06;;;;;;;9.70;6.20;;;;;;;14.63;53.50;101652.16;4966834;28;20233;-57
2022/03/28 10:51:33;;;;;;;10.20;6.40;;;;;;;14.67;52.84;101643.38;4972162;28;20262;-56
2022/03/28 10:54:01;;;;;;;7.85;6.32;;;;;;;14.63;54.45;101638.94;4967930;28;20306;-57
2022/03/28 10:56:31;;;;;;;10.02;6.75;;;;;;;14.57;54.35;101633.72;4963826;28;20242;-56
2022/03/28 10:59:00;;;;;;;10.40;5.97;;;;;;;14.75;53.58;101631.00;4964755;28;20235;-57
2022/03/28 11:01:29;;;;;;;6.72;5.53;;;;;;;14.91;52.19;101625.63;4973435;28;20295;-56
2022/03/28 11:04:01;;;;;;;10.35;8.60;;;;;;;14.87;52.92;101624.75;4973306;28;20312;-56
2022/03/28 11:06:52;;;;;;;7.72;6.60;;;;;;;14.99;53.39;101621.22;4970989;28;20237;-56
2022/03/28 11:09:47;;;;;;;10.18;6.55;;;;;;;15.13;52.79;101615.81;4978212;28;20230;-57
2022/03/28 11:12:15;;;;;;;14.90;6.57;;;;;;;15.25;51.40;101611.34;4980826;28;20313;-59
2022/03/28 11:14:45;;;;;;;6.95;6.28;;;;;;;15.28;50.73;101611.31;4976738;28;20246;-60
2022/03/28 11:17:17;;;;;;;9.27;6.20;;;;;;;15.28;51.14;101600.75;4978498;28;20262;-60
2022/03/28 11:19:58;;;;;;;9.75;6.93;;;;;;;15.28;51.53;101595.44;4973131;28;20290;-61
2022/03/28 11:22:45;;;;;;;7.45;6.03;;;;;;;15.38;51.18;101600.69;4974451;28;20230;-68
2022/03/28 11:25:35;;;;;;;8.40;6.30;;;;;;;15.54;51.29;101590.84;4977775;28;20246;-61
2022/03/28 11:28:03;;;;;;;7.28;6.53;;;;;;;15.61;50.19;101581.97;4968399;28;20261;-59
2022/03/28 11:30:31;;;;;;;10.55;6.93;;;;;;;15.72;49.77;101580.16;4969344;28;20290;-58
2022/03/28 11:32:58;;;;;;;7.60;6.28;;;;;;;15.79;49.54;101581.84;4967328;28;20713;-60